Terminal Aerodrome Forecast
Issued by NWS

Home | Current Version | Previous Version | Text Only | Print | Product List | Glossary On
Versions: 1 2 3 4 5 6 7 8 9 10 11 12 13 14 15 16 17 18
000
FTUS41 KLWX 181600 AAB
TAFMTN
TAF AMD
KMTN 181619Z 1816/1912 30010G18KT P6SM BKN040
     FM182200 30010KT P6SM SCT150
     FM190600 29008KT P6SM BKN100
     FM190800 29008KT P6SM SCT120=

USA.gov is the U.S. government's official web portal to all federal, state and local government web resources and services.